Eviapetrol II — SY6858 — position and weather

sailwx.info

Track history (hours):
 
Tides and Currents Weather Stations Pressure Air Temp Water Temp Dewpoint Dewpoint Depression Visibility Wind Speed Wind Dir Waves Ship Positions

Eviapetrol II

Last reported at 2016-Dec-04 16:33 UTC. Time now 2016-Dec-05 04:24 UTC.
Position N 32°57' E 034°48'.

Length 78 m; draft 4.4 m.

Type: Tanker. MMSI: 240493000.

Date/timePositionNaut miles runAvg speedWind from/ knotsBaromVisibWave heightAir tempDewpointWater temp
2016-Dec-04 16:33N 32°57' E 034°48'1110.5
2016-Dec-04 15:34N 32°52' E 034°59'4 3.7
2016-Dec-04 14:31N 32°49' E 035°02'0 0.0
2016-Dec-04 13:31N 32°49' E 035°02'0 0.0
2016-Dec-04 12:31N 32°49' E 035°02'0 0.0
2016-Dec-04 11:31N 32°49' E 035°02'0 0.0
2016-Dec-04 10:31N 32°49' E 035°02'0 0.0
2016-Dec-04 09:31N 32°49' E 035°02'0 0.0
2016-Dec-04 07:31N 32°49' E 035°02'0 0.0
2016-Dec-04 06:31N 32°49' E 035°02'0 0.0
2016-Dec-04 05:31N 32°49' E 035°02'0 0.0
2016-Dec-04 04:31N 32°49' E 035°02'0 0.0
2016-Dec-04 03:31N 32°49' E 035°02'0 0.0
2016-Dec-04 02:31N 32°49' E 035°02'0 0.0
2016-Dec-04 01:31N 32°49' E 035°02'0 0.0
2016-Dec-04 00:31N 32°49' E 035°02'0 0.0
2016-Dec-03 23:31N 32°49' E 035°02'0 0.0
2016-Dec-03 22:31N 32°49' E 035°02'0 0.0
2016-Dec-03 21:31N 32°49' E 035°02'0 0.0
2016-Dec-03 20:31N 32°49' E 035°02'0 0.0
2016-Dec-03 19:31N 32°49' E 035°02'0 0.0
2016-Dec-03 18:31N 32°49' E 035°02'0 0.0
2016-Dec-03 17:31N 32°49' E 035°02'0 0.3
2016-Dec-03 16:34N 32°49' E 035°01'3 2.6
2016-Dec-03 15:33N 32°51' E 034°60'2 2.5
2016-Dec-03 14:33N 32°54' E 034°59'3 3.4
2016-Dec-03 13:33N 32°57' E 034°59'1 1.0
2016-Dec-03 12:33N 32°58' E 034°58'1 1.3
2016-Dec-03 11:33N 32°57' E 034°57'2 2.1
2016-Dec-03 10:34N 32°55' E 034°58'1 0.9
2016-Dec-03 09:33N 32°54' E 034°58'3 3.1
2016-Dec-03 08:33N 32°57' E 034°57'3 2.7
2016-Dec-03 07:33N 32°59' E 034°56'1 0.8
2016-Dec-03 06:34N 32°59' E 034°55'1 0.9
2016-Dec-03 05:33N 32°58' E 034°55'1 1.1
2016-Dec-03 04:33N 32°57' E 034°56'1 1.0
2016-Dec-03 03:33N 32°56' E 034°56'0 0.2
2016-Dec-03 02:34N 32°56' E 034°57'3 3.1
2016-Dec-03 01:34N 32°57' E 034°53'2 0.7
2016-Dec-02 23:08N 32°58' E 034°51'0 0.5
2016-Dec-02 22:33N 32°58' E 034°52'0 0.4
2016-Dec-02 21:33N 32°58' E 034°52'0 0.5
2016-Dec-02 20:33N 32°58' E 034°53'1 0.5
2016-Dec-02 19:34N 32°57' E 034°53'1 0.9
2016-Dec-02 18:33N 32°56' E 034°53'2 1.8
2016-Dec-02 17:33N 32°55' E 034°53'2 2.1
2016-Dec-02 16:25N 32°52' E 034°53'1 0.1
2016-Dec-02 04:14N 32°53' E 034°53'0 0.6
2016-Dec-02 03:30N 32°53' E 034°53'0 0.4
2016-Dec-02 02:30N 32°53' E 034°54'1 0.7
2016-Dec-02 01:33N 32°53' E 034°54'1 0.7
2016-Dec-02 00:33N 32°53' E 034°55'1 0.7
2016-Dec-01 23:34N 32°52' E 034°55'1 1.1
2016-Dec-01 22:33N 32°53' E 034°55'2 2.0
2016-Dec-01 21:34N 32°55' E 034°55'3 2.7
2016-Dec-01 20:34N 32°58' E 034°55'5 5.1
2016-Dec-01 19:34N 32°54' E 034°51'3 2.9
2016-Dec-01 18:34N 32°52' E 034°54'4 4.2
2016-Dec-01 17:34N 32°56' E 034°52'  
2016-Nov-24 20:31N 45°09' E 036°33'  
Track history (hours):
 
Tides and Currents Weather Stations Pressure Air Temp Water Temp Dewpoint Dewpoint Depression Visibility Wind Speed Wind Dir Waves Ship Positions

Eviapetrol II

Last reported at 2016-Dec-04 16:33 UTC. Time now 2016-Dec-05 04:24 UTC.
Position N 32°57' E 034°48'.

Length 78 m; draft 4.4 m.

Type: Tanker. MMSI: 240493000.

Date/timePositionNaut miles runAvg speedWind from/ knotsBaromVisibWave heightAir tempDewpointWater temp
2016-Dec-04 16:33N 32°57' E 034°48'1110.5
2016-Dec-04 15:34N 32°52' E 034°59'4 3.7
2016-Dec-04 14:31N 32°49' E 035°02'0 0.0
2016-Dec-04 13:31N 32°49' E 035°02'0 0.0
2016-Dec-04 12:31N 32°49' E 035°02'0 0.0
2016-Dec-04 11:31N 32°49' E 035°02'0 0.0
2016-Dec-04 10:31N 32°49' E 035°02'0 0.0
2016-Dec-04 09:31N 32°49' E 035°02'0 0.0
2016-Dec-04 07:31N 32°49' E 035°02'0 0.0
2016-Dec-04 06:31N 32°49' E 035°02'0 0.0
2016-Dec-04 05:31N 32°49' E 035°02'0 0.0
2016-Dec-04 04:31N 32°49' E 035°02'0 0.0
2016-Dec-04 03:31N 32°49' E 035°02'0 0.0
2016-Dec-04 02:31N 32°49' E 035°02'0 0.0
2016-Dec-04 01:31N 32°49' E 035°02'0 0.0
2016-Dec-04 00:31N 32°49' E 035°02'0 0.0
2016-Dec-03 23:31N 32°49' E 035°02'0 0.0
2016-Dec-03 22:31N 32°49' E 035°02'0 0.0
2016-Dec-03 21:31N 32°49' E 035°02'0 0.0
2016-Dec-03 20:31N 32°49' E 035°02'0 0.0
2016-Dec-03 19:31N 32°49' E 035°02'0 0.0
2016-Dec-03 18:31N 32°49' E 035°02'0 0.0
2016-Dec-03 17:31N 32°49' E 035°02'0 0.3
2016-Dec-03 16:34N 32°49' E 035°01'3 2.6
2016-Dec-03 15:33N 32°51' E 034°60'2 2.5
2016-Dec-03 14:33N 32°54' E 034°59'3 3.4
2016-Dec-03 13:33N 32°57' E 034°59'1 1.0
2016-Dec-03 12:33N 32°58' E 034°58'1 1.3
2016-Dec-03 11:33N 32°57' E 034°57'2 2.1
2016-Dec-03 10:34N 32°55' E 034°58'1 0.9
2016-Dec-03 09:33N 32°54' E 034°58'3 3.1
2016-Dec-03 08:33N 32°57' E 034°57'3 2.7
2016-Dec-03 07:33N 32°59' E 034°56'1 0.8
2016-Dec-03 06:34N 32°59' E 034°55'1 0.9
2016-Dec-03 05:33N 32°58' E 034°55'1 1.1
2016-Dec-03 04:33N 32°57' E 034°56'1 1.0
2016-Dec-03 03:33N 32°56' E 034°56'0 0.2
2016-Dec-03 02:34N 32°56' E 034°57'3 3.1
2016-Dec-03 01:34N 32°57' E 034°53'2 0.7
2016-Dec-02 23:08N 32°58' E 034°51'0 0.5
2016-Dec-02 22:33N 32°58' E 034°52'0 0.4
2016-Dec-02 21:33N 32°58' E 034°52'0 0.5
2016-Dec-02 20:33N 32°58' E 034°53'1 0.5
2016-Dec-02 19:34N 32°57' E 034°53'1 0.9
2016-Dec-02 18:33N 32°56' E 034°53'2 1.8
2016-Dec-02 17:33N 32°55' E 034°53'2 2.1
2016-Dec-02 16:25N 32°52' E 034°53'1 0.1
2016-Dec-02 04:14N 32°53' E 034°53'0 0.6
2016-Dec-02 03:30N 32°53' E 034°53'0 0.4
2016-Dec-02 02:30N 32°53' E 034°54'1 0.7
2016-Dec-02 01:33N 32°53' E 034°54'1 0.7
2016-Dec-02 00:33N 32°53' E 034°55'1 0.7
2016-Dec-01 23:34N 32°52' E 034°55'1 1.1
2016-Dec-01 22:33N 32°53' E 034°55'2 2.0
2016-Dec-01 21:34N 32°55' E 034°55'3 2.7
2016-Dec-01 20:34N 32°58' E 034°55'5 5.1
2016-Dec-01 19:34N 32°54' E 034°51'3 2.9
2016-Dec-01 18:34N 32°52' E 034°54'4 4.2
2016-Dec-01 17:34N 32°56' E 034°52'  
2016-Nov-24 20:31N 45°09' E 036°33'  

Dump ship's entire track history